Flight Track Log - Related Links

Times and Time Zones

All times are in EDT time to prevent confusion due to time zone crossing. See the RPA3496 flight status page for this flight to view local times or setup timezone preferences in your user account.

Time Position Orientation Groundspeed Altitude Reporting Facility
EDT Latitude Longitude Course Direction KTS MPH feet Rate Location/Type
Tue 04:07:18 PM 40.8000 -73.8667 268° West 156 180 1,400  Level New York TRACON
Tue 04:08:12 PM 40.8333 -73.8833 339° North 199 229 4,200 3,632 Climbing New York TRACON
Tue 04:09:12 PM 40.8500 -73.9667 285° West 248 285 8,300 4,150 Climbing New York TRACON
Tue 04:10:12 PM 40.8500 -74.0667 270° West 260 299 12,500 3,350 Climbing New York TRACON
Tue 04:11:00 PM 40.7666 -74.4138 269° West  Level Estimated
Tue 04:11:12 PM 40.8500 -74.1667 270° West 287 330 15,000  Level New York TRACON
Tue 04:12:00 PM 40.7641 -74.5220 268° West  Level Estimated
Tue 04:12:18 PM 40.8500 -74.2833 270° West 285 328 15,300  Level New York TRACON
Tue 04:13:18 PM 40.8333 -74.3833 258° West 291 335 17,000 900 Climbing New York TRACON
Tue 04:14:18 PM 40.8333 -74.5000 270° West 283 326 17,100  Climbing New York TRACON
Tue 04:15:18 PM 40.8333 -74.6000 270° West 279 321 17,000 3,832 Descending New York TRACON
Tue 04:17:40 PM 40.8192 -74.8239 265° West 286 329 30,000 3,900 Climbing New York Center
Tue 04:18:38 PM 40.8133 -74.9275 266° West 292 336 30,000 -5,597 Level New York Center
Tue 04:19:39 PM 40.8075 -75.0397 266° West 286 329 18,900 -4,400 Descending New York Center
Tue 04:20:38 PM 40.8017 -75.1381 266° West 291 335 21,200 2,800 Climbing New York Center
Tue 04:21:39 PM 40.7681 -75.2592 250° West 308 354 24,500 2,600 Climbing New York Center
Tue 04:22:38 PM 40.7350 -75.3611 247° West 327 376 26,400 1,765 Climbing New York Center
Tue 04:23:38 PM 40.6947 -75.4789 246° West 340 391 28,000 787 Climbing New York Center
Tue 04:24:40 PM 40.6522 -75.6017 246° West 360 414 28,000  Level New York Center
Tue 04:25:39 PM 40.6119 -75.7247 247° West 372 428 28,000  Level New York Center
Tue 04:26:39 PM 40.5692 -75.8472 245° Southwest 372 428 28,000  Level New York Center
Tue 04:27:39 PM 40.5214 -75.9831 245° Southwest 372 428 28,000  Level New York Center
Tue 04:28:40 PM 40.4764 -76.1050 244° Southwest 372 428 28,000  Level New York Center
Tue 04:29:38 PM 40.4331 -76.2328 246° West 372 428 28,000  Level New York Center
Tue 04:30:39 PM 40.3919 -76.3575 247° West 372 428 28,000  Level New York Center
Tue 04:31:39 PM 40.3589 -76.4828 251° West 372 428 28,000  Level New York Center
Tue 04:32:40 PM 40.3256 -76.6081 251° West 366 421 28,000  Level New York Center
Tue 04:33:38 PM 40.2942 -76.7333 252° West 366 421 28,000 -303 Level New York Center
Tue 04:34:39 PM 40.2606 -76.8611 251° West 366 421 27,400 -885 Descending New York Center
Tue 04:35:40 PM 40.2292 -76.9833 251° West 366 421 26,200 -700 Descending New York Center
Tue 04:36:39 PM 40.1975 -77.1111 252° West 366 421 26,000 -100 Descending New York Center
Tue 04:37:40 PM 40.1633 -77.2383 251° West 372 428 26,000  Level New York Center
Tue 04:39:13 PM 40.1131 -77.4286 251° West 366 421 26,000  Level Cleveland Center
Tue 04:40:15 PM 40.0800 -77.5553 251° West 366 421 26,000 -726 Level Cleveland Center
Tue 04:41:17 PM 40.0461 -77.6797 250° West 367 422 24,500 -1,584 Descending Cleveland Center
Tue 04:42:20 PM 40.0139 -77.7981 250° West 357 411 22,700 -1,200 Descending Cleveland Center
Tue 04:43:22 PM 40.0217 -77.9408 274° West 328 377 22,000 -339 Descending Cleveland Center
Tue 04:44:24 PM 40.0336 -78.0592 278° West 328 377 22,000  Level Cleveland Center
Tue 04:45:26 PM 40.0461 -78.1739 278° West 328 377 22,000  Level Cleveland Center
Tue 04:46:28 PM 40.0586 -78.2922 278° West 328 377 22,000  Level Cleveland Center
Tue 04:47:30 PM 40.0717 -78.4178 278° West 343 395 22,000  Level Cleveland Center
Tue 04:48:32 PM 40.0858 -78.5742 277° West 357 411 22,000  Level Cleveland Center
Tue 04:49:34 PM 40.0986 -78.7008 278° West 356 410 22,000  Level Cleveland Center
Tue 04:50:36 PM 40.1125 -78.8303 278° West 356 410 22,000 -384 Level Cleveland Center
Tue 04:51:39 PM 40.1247 -78.9592 277° West 357 411 21,200 -1,296 Descending Cleveland Center
Tue 04:52:41 PM 40.1372 -79.0853 277° West 355 409 19,300 -1,984 Descending Cleveland Center
Tue 04:53:43 PM 40.1508 -79.2317 277° West 344 396 17,100 -1,790 Descending Cleveland Center
Tue 04:54:45 PM 40.1611 -79.3358 277° West 340 391 15,600 -1,742 Descending Cleveland Center
Tue 04:55:47 PM 40.1739 -79.4817 277° West 338 389 13,500 -1,887 Descending Cleveland Center
Tue 04:56:49 PM 40.1847 -79.5994 277° West 331 381 11,700 -1,645 Descending Cleveland Center
Tue 04:57:51 PM 40.1958 -79.7136 277° West 319 367 10,100 -823 Descending Cleveland Center
Tue 04:58:53 PM 40.2356 -79.8181 297° West 320 368 10,000 -48 Descending Cleveland Center
Tue 04:59:56 PM 40.2786 -79.9192 299° West 318 366 10,000 -192 Level Cleveland Center
Tue 05:00:58 PM 40.3150 -80.0072 298° West 275 316 9,600 -1,452 Descending Cleveland Center
Tue 05:02:00 PM 40.3533 -80.0981 299° West 257 296 7,000 -1,935 Descending Cleveland Center
Tue 05:03:02 PM 40.3894 -80.1822 299° West 264 304 5,600 -1,258 Descending Cleveland Center
Tue 05:04:04 PM 40.4161 -80.2628 294° West 255 293 4,400 -1,597 Descending Cleveland Center
Tue 05:05:06 PM 40.4717 -80.2842 344° North 201 231 2,300 -1,548 Descending Cleveland Center
Tue 05:06:08 PM 40.4861 -80.2544 57° Northeast 175 201 1,200 -1,065 Descending Cleveland Center
Tue 05:08:00 PM 40.4914 -80.2327 303° West  Level Estimated

Login

Don't have an account? Register now (free) for customized features, flight alerts, and more!